sensor_id;sensor_type;location;lat;lon;timestamp;P1;durP1;ratioP1;P2;durP2;ratioP2
21428;SDS011;10875;50.444;30.540;2022-08-04T00:01:40;11.85;;;8.57;;
21428;SDS011;10875;50.444;30.540;2022-08-04T00:04:33;11.18;;;8.43;;
21428;SDS011;10875;50.444;30.540;2022-08-04T00:07:13;11.77;;;8.95;;
21428;SDS011;10875;50.444;30.540;2022-08-04T00:09:45;11.00;;;8.30;;
21428;SDS011;10875;50.444;30.540;2022-08-04T00:12:16;12.43;;;8.93;;
21428;SDS011;10875;50.444;30.540;2022-08-04T00:14:46;11.25;;;8.55;;
21428;SDS011;10875;50.444;30.540;2022-08-04T00:17:13;14.27;;;8.65;;
21428;SDS011;10875;50.444;30.540;2022-08-04T00:19:44;12.63;;;9.80;;
21428;SDS011;10875;50.444;30.540;2022-08-04T00:22:12;10.93;;;8.68;;
21428;SDS011;10875;50.444;30.540;2022-08-04T00:24:39;12.50;;;9.10;;
21428;SDS011;10875;50.444;30.540;2022-08-04T00:27:06;13.30;;;9.77;;
21428;SDS011;10875;50.444;30.540;2022-08-04T00:29:32;12.40;;;9.82;;
21428;SDS011;10875;50.444;30.540;2022-08-04T00:31:59;12.98;;;9.57;;
21428;SDS011;10875;50.444;30.540;2022-08-04T00:34:27;13.73;;;8.93;;
21428;SDS011;10875;50.444;30.540;2022-08-04T00:36:55;11.30;;;9.43;;
21428;SDS011;10875;50.444;30.540;2022-08-04T00:39:22;13.07;;;10.02;;
21428;SDS011;10875;50.444;30.540;2022-08-04T00:53:11;14.63;;;10.63;;
21428;SDS011;10875;50.444;30.540;2022-08-04T00:58:53;14.45;;;10.43;;
21428;SDS011;10875;50.444;30.540;2022-08-04T01:10:02;16.65;;;10.82;;
21428;SDS011;10875;50.444;30.540;2022-08-04T01:12:42;14.63;;;10.75;;
21428;SDS011;10875;50.444;30.540;2022-08-04T01:31:41;14.45;;;11.57;;
21428;SDS011;10875;50.444;30.540;2022-08-04T01:34:11;14.30;;;11.07;;
21428;SDS011;10875;50.444;30.540;2022-08-04T01:36:38;14.27;;;11.48;;
21428;SDS011;10875;50.444;30.540;2022-08-04T01:39:10;17.90;;;11.93;;
21428;SDS011;10875;50.444;30.540;2022-08-04T01:41:56;14.90;;;11.95;;
21428;SDS011;10875;50.444;30.540;2022-08-04T01:44:23;18.13;;;12.60;;
21428;SDS011;10875;50.444;30.540;2022-08-04T01:46:53;16.35;;;12.73;;
21428;SDS011;10875;50.444;30.540;2022-08-04T01:49:20;16.63;;;12.10;;
21428;SDS011;10875;50.444;30.540;2022-08-04T01:51:48;18.45;;;11.80;;
21428;SDS011;10875;50.444;30.540;2022-08-04T01:54:16;15.75;;;12.23;;
21428;SDS011;10875;50.444;30.540;2022-08-04T01:56:42;16.38;;;11.73;;
21428;SDS011;10875;50.444;30.540;2022-08-04T01:59:10;15.55;;;11.98;;
21428;SDS011;10875;50.444;30.540;2022-08-04T02:01:41;16.35;;;13.15;;
21428;SDS011;10875;50.444;30.540;2022-08-04T02:04:07;15.33;;;11.30;;
21428;SDS011;10875;50.444;30.540;2022-08-04T02:12:24;16.38;;;11.65;;
21428;SDS011;10875;50.444;30.540;2022-08-04T02:18:03;17.40;;;11.95;;
21428;SDS011;10875;50.444;30.540;2022-08-04T02:20:38;16.88;;;12.40;;
21428;SDS011;10875;50.444;30.540;2022-08-04T02:23:08;17.73;;;12.40;;
21428;SDS011;10875;50.444;30.540;2022-08-04T02:25:39;18.83;;;12.07;;
21428;SDS011;10875;50.444;30.540;2022-08-04T02:28:28;16.08;;;12.10;;
21428;SDS011;10875;50.444;30.540;2022-08-04T02:31:21;22.02;;;14.27;;
21428;SDS011;10875;50.444;30.540;2022-08-04T02:34:12;19.13;;;13.60;;
21428;SDS011;10875;50.444;30.540;2022-08-04T02:36:45;17.55;;;13.15;;
21428;SDS011;10875;50.444;30.540;2022-08-04T02:39:12;17.33;;;12.93;;
21428;SDS011;10875;50.444;30.540;2022-08-04T02:41:43;18.23;;;13.25;;
21428;SDS011;10875;50.444;30.540;2022-08-04T02:44:12;19.65;;;13.48;;
21428;SDS011;10875;50.444;30.540;2022-08-04T02:46:42;19.67;;;13.73;;
21428;SDS011;10875;50.444;30.540;2022-08-04T02:49:10;17.65;;;13.02;;
21428;SDS011;10875;50.444;30.540;2022-08-04T02:51:41;19.30;;;14.18;;
21428;SDS011;10875;50.444;30.540;2022-08-04T02:56:40;21.52;;;13.95;;
21428;SDS011;10875;50.444;30.540;2022-08-04T02:59:09;17.75;;;13.10;;
21428;SDS011;10875;50.444;30.540;2022-08-04T03:01:36;19.42;;;14.15;;
21428;SDS011;10875;50.444;30.540;2022-08-04T03:34:27;20.05;;;13.80;;
21428;SDS011;10875;50.444;30.540;2022-08-04T03:45:36;17.58;;;13.57;;
21428;SDS011;10875;50.444;30.540;2022-08-04T04:07:39;17.60;;;12.82;;
21428;SDS011;10875;50.444;30.540;2022-08-04T04:22:23;18.88;;;14.35;;
21428;SDS011;10875;50.444;30.540;2022-08-04T04:36:08;18.10;;;13.77;;
21428;SDS011;10875;50.444;30.540;2022-08-04T04:49:55;22.58;;;14.05;;
21428;SDS011;10875;50.444;30.540;2022-08-04T04:52:46;19.77;;;14.40;;
21428;SDS011;10875;50.444;30.540;2022-08-04T04:55:21;19.30;;;13.90;;
21428;SDS011;10875;50.444;30.540;2022-08-04T04:57:51;18.27;;;14.70;;
21428;SDS011;10875;50.444;30.540;2022-08-04T05:00:21;21.45;;;14.45;;
21428;SDS011;10875;50.444;30.540;2022-08-04T05:14:20;20.83;;;14.70;;
21428;SDS011;10875;50.444;30.540;2022-08-04T05:16:50;24.98;;;17.35;;
21428;SDS011;10875;50.444;30.540;2022-08-04T05:21:58;22.87;;;16.27;;
21428;SDS011;10875;50.444;30.540;2022-08-04T05:24:34;22.13;;;15.50;;
21428;SDS011;10875;50.444;30.540;2022-08-04T05:27:04;20.05;;;14.70;;
21428;SDS011;10875;50.444;30.540;2022-08-04T05:29:37;20.63;;;16.33;;
21428;SDS011;10875;50.444;30.540;2022-08-04T05:32:15;22.27;;;14.85;;
21428;SDS011;10875;50.444;30.540;2022-08-04T05:34:51;18.50;;;14.80;;
21428;SDS011;10875;50.444;30.540;2022-08-04T05:37:28;20.15;;;15.85;;
21428;SDS011;10875;50.444;30.540;2022-08-04T05:39:57;22.33;;;16.75;;
21428;SDS011;10875;50.444;30.540;2022-08-04T05:42:28;19.10;;;14.75;;
21428;SDS011;10875;50.444;30.540;2022-08-04T05:44:55;20.35;;;16.00;;
21428;SDS011;10875;50.444;30.540;2022-08-04T05:47:23;21.67;;;15.20;;
21428;SDS011;10875;50.444;30.540;2022-08-04T05:49:49;22.17;;;15.55;;
21428;SDS011;10875;50.444;30.540;2022-08-04T05:52:16;20.88;;;15.80;;
21428;SDS011;10875;50.444;30.540;2022-08-04T05:54:42;22.00;;;16.02;;
21428;SDS011;10875;50.444;30.540;2022-08-04T05:57:09;21.02;;;15.98;;
21428;SDS011;10875;50.444;30.540;2022-08-04T05:59:39;19.75;;;15.48;;
21428;SDS011;10875;50.444;30.540;2022-08-04T06:02:10;23.55;;;15.88;;
21428;SDS011;10875;50.444;30.540;2022-08-04T06:04:41;20.83;;;16.45;;
21428;SDS011;10875;50.444;30.540;2022-08-04T06:07:09;22.85;;;16.10;;
21428;SDS011;10875;50.444;30.540;2022-08-04T06:09:35;22.55;;;16.33;;
21428;SDS011;10875;50.444;30.540;2022-08-04T06:12:03;22.05;;;15.65;;
21428;SDS011;10875;50.444;30.540;2022-08-04T06:14:43;23.48;;;17.38;;
21428;SDS011;10875;50.444;30.540;2022-08-04T06:17:18;20.50;;;15.93;;
21428;SDS011;10875;50.444;30.540;2022-08-04T06:19:47;19.60;;;15.25;;
21428;SDS011;10875;50.444;30.540;2022-08-04T06:22:14;21.55;;;16.20;;
21428;SDS011;10875;50.444;30.540;2022-08-04T06:24:40;19.63;;;15.18;;
21428;SDS011;10875;50.444;30.540;2022-08-04T06:27:12;21.90;;;16.50;;
21428;SDS011;10875;50.444;30.540;2022-08-04T06:29:38;20.02;;;15.50;;
21428;SDS011;10875;50.444;30.540;2022-08-04T06:32:05;21.08;;;16.20;;
21428;SDS011;10875;50.444;30.540;2022-08-04T06:34:49;20.73;;;15.75;;
21428;SDS011;10875;50.444;30.540;2022-08-04T06:37:29;20.35;;;15.45;;
21428;SDS011;10875;50.444;30.540;2022-08-04T06:39:55;17.52;;;14.60;;
21428;SDS011;10875;50.444;30.540;2022-08-04T06:42:24;22.48;;;15.25;;
21428;SDS011;10875;50.444;30.540;2022-08-04T06:44:53;19.60;;;15.75;;
21428;SDS011;10875;50.444;30.540;2022-08-04T06:47:21;19.77;;;14.82;;
21428;SDS011;10875;50.444;30.540;2022-08-04T06:49:49;18.98;;;14.63;;
21428;SDS011;10875;50.444;30.540;2022-08-04T06:52:17;19.65;;;15.32;;
21428;SDS011;10875;50.444;30.540;2022-08-04T06:57:16;19.67;;;14.23;;
21428;SDS011;10875;50.444;30.540;2022-08-04T06:59:44;20.40;;;14.95;;
21428;SDS011;10875;50.444;30.540;2022-08-04T07:02:13;20.38;;;15.57;;
21428;SDS011;10875;50.444;30.540;2022-08-04T07:04:41;20.92;;;16.50;;
21428;SDS011;10875;50.444;30.540;2022-08-04T07:07:08;19.25;;;14.63;;
21428;SDS011;10875;50.444;30.540;2022-08-04T07:09:35;19.60;;;15.02;;
21428;SDS011;10875;50.444;30.540;2022-08-04T07:12:01;20.07;;;15.63;;
21428;SDS011;10875;50.444;30.540;2022-08-04T07:16:55;20.55;;;14.80;;
21428;SDS011;10875;50.444;30.540;2022-08-04T07:19:22;22.65;;;15.73;;
21428;SDS011;10875;50.444;30.540;2022-08-04T07:21:47;19.00;;;15.17;;
21428;SDS011;10875;50.444;30.540;2022-08-04T07:26:40;18.20;;;14.10;;
21428;SDS011;10875;50.444;30.540;2022-08-04T07:29:05;17.23;;;15.00;;
21428;SDS011;10875;50.444;30.540;2022-08-04T07:31:31;22.07;;;15.80;;
21428;SDS011;10875;50.444;30.540;2022-08-04T07:33:58;20.92;;;14.48;;
21428;SDS011;10875;50.444;30.540;2022-08-04T07:36:25;18.52;;;14.50;;
21428;SDS011;10875;50.444;30.540;2022-08-04T07:38:50;16.90;;;13.93;;
21428;SDS011;10875;50.444;30.540;2022-08-04T07:41:18;20.07;;;15.80;;
21428;SDS011;10875;50.444;30.540;2022-08-04T07:43:45;20.45;;;14.20;;
21428;SDS011;10875;50.444;30.540;2022-08-04T07:46:12;21.35;;;14.95;;
21428;SDS011;10875;50.444;30.540;2022-08-04T07:48:37;18.50;;;13.90;;
21428;SDS011;10875;50.444;30.540;2022-08-04T07:51:03;24.03;;;15.23;;
21428;SDS011;10875;50.444;30.540;2022-08-04T07:53:30;16.73;;;13.25;;
21428;SDS011;10875;50.444;30.540;2022-08-04T07:55:58;18.85;;;13.88;;
21428;SDS011;10875;50.444;30.540;2022-08-04T07:58:25;19.83;;;14.13;;
21428;SDS011;10875;50.444;30.540;2022-08-04T08:00:52;18.50;;;14.48;;
21428;SDS011;10875;50.444;30.540;2022-08-04T08:03:18;16.88;;;13.68;;
21428;SDS011;10875;50.444;30.540;2022-08-04T08:05:44;17.98;;;13.90;;
21428;SDS011;10875;50.444;30.540;2022-08-04T08:08:10;18.10;;;13.80;;
21428;SDS011;10875;50.444;30.540;2022-08-04T08:10:36;16.50;;;13.33;;
21428;SDS011;10875;50.444;30.540;2022-08-04T08:13:03;20.00;;;13.95;;
21428;SDS011;10875;50.444;30.540;2022-08-04T08:15:30;16.95;;;13.50;;
21428;SDS011;10875;50.444;30.540;2022-08-04T08:17:56;33.22;;;13.90;;
21428;SDS011;10875;50.444;30.540;2022-08-04T08:20:23;18.13;;;12.38;;
21428;SDS011;10875;50.444;30.540;2022-08-04T08:22:48;19.07;;;13.87;;
21428;SDS011;10875;50.444;30.540;2022-08-04T08:25:14;15.37;;;13.00;;
21428;SDS011;10875;50.444;30.540;2022-08-04T08:27:40;16.00;;;12.77;;
21428;SDS011;10875;50.444;30.540;2022-08-04T08:30:05;16.67;;;12.87;;
21428;SDS011;10875;50.444;30.540;2022-08-04T08:32:32;16.45;;;13.38;;
21428;SDS011;10875;50.444;30.540;2022-08-04T08:34:58;18.17;;;13.83;;
21428;SDS011;10875;50.444;30.540;2022-08-04T08:39:56;13.98;;;12.38;;
21428;SDS011;10875;50.444;30.540;2022-08-04T08:42:42;17.80;;;12.70;;
21428;SDS011;10875;50.444;30.540;2022-08-04T08:53:29;14.00;;;12.50;;
21428;SDS011;10875;50.444;30.540;2022-08-04T09:04:31;13.30;;;11.47;;
21428;SDS011;10875;50.444;30.540;2022-08-04T09:12:55;15.00;;;11.07;;
21428;SDS011;10875;50.444;30.540;2022-08-04T09:15:28;12.93;;;11.55;;
21428;SDS011;10875;50.444;30.540;2022-08-04T09:18:02;12.98;;;11.50;;
21428;SDS011;10875;50.444;30.540;2022-08-04T09:20:39;12.77;;;10.52;;
21428;SDS011;10875;50.444;30.540;2022-08-04T09:25:50;18.15;;;11.48;;
21428;SDS011;10875;50.444;30.540;2022-08-04T09:28:28;15.15;;;11.32;;
21428;SDS011;10875;50.444;30.540;2022-08-04T09:31:04;18.25;;;11.68;;
21428;SDS011;10875;50.444;30.540;2022-08-04T09:33:45;12.88;;;10.95;;
21428;SDS011;10875;50.444;30.540;2022-08-04T09:36:31;12.55;;;11.07;;
21428;SDS011;10875;50.444;30.540;2022-08-04T09:47:45;11.77;;;10.20;;
21428;SDS011;10875;50.444;30.540;2022-08-04T09:50:37;12.05;;;9.82;;
21428;SDS011;10875;50.444;30.540;2022-08-04T09:55:54;13.98;;;10.43;;
21428;SDS011;10875;50.444;30.540;2022-08-04T10:01:15;12.98;;;9.63;;
21428;SDS011;10875;50.444;30.540;2022-08-04T10:04:05;11.07;;;9.38;;
21428;SDS011;10875;50.444;30.540;2022-08-04T10:12:26;9.90;;;8.85;;
21428;SDS011;10875;50.444;30.540;2022-08-04T10:20:24;11.30;;;8.80;;
21428;SDS011;10875;50.444;30.540;2022-08-04T10:26:04;13.27;;;9.05;;
21428;SDS011;10875;50.444;30.540;2022-08-04T10:28:31;10.60;;;8.88;;
21428;SDS011;10875;50.444;30.540;2022-08-04T10:31:06;12.20;;;9.32;;
21428;SDS011;10875;50.444;30.540;2022-08-04T10:33:51;10.02;;;8.95;;
21428;SDS011;10875;50.444;30.540;2022-08-04T10:36:26;10.90;;;8.68;;
21428;SDS011;10875;50.444;30.540;2022-08-04T10:39:01;9.23;;;8.20;;
21428;SDS011;10875;50.444;30.540;2022-08-04T10:41:44;9.27;;;7.88;;
21428;SDS011;10875;50.444;30.540;2022-08-04T10:44:36;10.15;;;8.23;;
21428;SDS011;10875;50.444;30.540;2022-08-04T10:47:17;9.65;;;8.30;;
21428;SDS011;10875;50.444;30.540;2022-08-04T10:49:47;11.52;;;8.73;;
21428;SDS011;10875;50.444;30.540;2022-08-04T10:52:23;12.98;;;8.57;;
21428;SDS011;10875;50.444;30.540;2022-08-04T10:55:07;14.45;;;8.35;;
21428;SDS011;10875;50.444;30.540;2022-08-04T10:57:41;10.20;;;8.50;;
21428;SDS011;10875;50.444;30.540;2022-08-04T11:00:25;9.43;;;7.93;;
21428;SDS011;10875;50.444;30.540;2022-08-04T11:03:11;12.07;;;8.55;;
21428;SDS011;10875;50.444;30.540;2022-08-04T11:05:57;10.05;;;8.13;;
21428;SDS011;10875;50.444;30.540;2022-08-04T11:10:54;15.32;;;9.05;;
21428;SDS011;10875;50.444;30.540;2022-08-04T11:13:34;56.78;;;16.42;;
21428;SDS011;10875;50.444;30.540;2022-08-04T11:16:08;10.88;;;8.98;;
21428;SDS011;10875;50.444;30.540;2022-08-04T11:19:14;10.88;;;9.18;;
21428;SDS011;10875;50.444;30.540;2022-08-04T11:21:43;11.77;;;9.65;;
21428;SDS011;10875;50.444;30.540;2022-08-04T11:24:18;11.02;;;9.73;;
21428;SDS011;10875;50.444;30.540;2022-08-04T11:26:53;13.77;;;10.60;;
21428;SDS011;10875;50.444;30.540;2022-08-04T11:32:25;11.13;;;9.30;;
21428;SDS011;10875;50.444;30.540;2022-08-04T11:34:56;13.35;;;10.07;;
21428;SDS011;10875;50.444;30.540;2022-08-04T11:37:27;12.70;;;10.48;;
21428;SDS011;10875;50.444;30.540;2022-08-04T11:40:10;11.35;;;10.00;;
21428;SDS011;10875;50.444;30.540;2022-08-04T11:42:50;11.48;;;9.50;;
21428;SDS011;10875;50.444;30.540;2022-08-04T11:45:35;10.98;;;9.85;;
21428;SDS011;10875;50.444;30.540;2022-08-04T11:48:16;11.82;;;10.23;;
21428;SDS011;10875;50.444;30.540;2022-08-04T11:50:49;11.02;;;9.70;;
21428;SDS011;10875;50.444;30.540;2022-08-04T11:53:19;11.98;;;9.80;;
21428;SDS011;10875;50.444;30.540;2022-08-04T11:55:48;10.20;;;9.00;;
21428;SDS011;10875;50.444;30.540;2022-08-04T11:58:17;13.13;;;8.88;;
21428;SDS011;10875;50.444;30.540;2022-08-04T12:00:46;10.80;;;8.90;;
21428;SDS011;10875;50.444;30.540;2022-08-04T12:03:24;12.90;;;10.43;;
21428;SDS011;10875;50.444;30.540;2022-08-04T12:06:24;11.23;;;9.90;;
21428;SDS011;10875;50.444;30.540;2022-08-04T12:09:02;11.65;;;8.75;;
21428;SDS011;10875;50.444;30.540;2022-08-04T12:20:15;12.48;;;8.85;;
21428;SDS011;10875;50.444;30.540;2022-08-04T12:22:47;11.02;;;8.65;;
21428;SDS011;10875;50.444;30.540;2022-08-04T12:25:23;10.63;;;8.95;;
21428;SDS011;10875;50.444;30.540;2022-08-04T12:27:56;11.27;;;9.43;;
21428;SDS011;10875;50.444;30.540;2022-08-04T12:30:36;14.15;;;9.55;;
21428;SDS011;10875;50.444;30.540;2022-08-04T12:33:21;10.57;;;8.93;;
21428;SDS011;10875;50.444;30.540;2022-08-04T12:35:56;10.38;;;9.27;;
21428;SDS011;10875;50.444;30.540;2022-08-04T12:38:26;11.43;;;9.40;;
21428;SDS011;10875;50.444;30.540;2022-08-04T12:40:57;10.50;;;9.00;;
21428;SDS011;10875;50.444;30.540;2022-08-04T12:46:03;11.38;;;9.55;;
21428;SDS011;10875;50.444;30.540;2022-08-04T12:48:31;11.27;;;9.73;;
21428;SDS011;10875;50.444;30.540;2022-08-04T12:50:59;13.10;;;9.85;;
21428;SDS011;10875;50.444;30.540;2022-08-04T12:53:27;12.60;;;10.13;;
21428;SDS011;10875;50.444;30.540;2022-08-04T12:55:56;12.20;;;10.40;;
21428;SDS011;10875;50.444;30.540;2022-08-04T12:58:25;10.15;;;8.63;;
21428;SDS011;10875;50.444;30.540;2022-08-04T13:00:54;9.52;;;7.93;;
21428;SDS011;10875;50.444;30.540;2022-08-04T13:03:25;10.10;;;7.88;;
21428;SDS011;10875;50.444;30.540;2022-08-04T13:05:53;11.82;;;8.32;;
21428;SDS011;10875;50.444;30.540;2022-08-04T13:08:22;11.82;;;8.55;;
21428;SDS011;10875;50.444;30.540;2022-08-04T13:10:49;9.23;;;7.57;;
21428;SDS011;10875;50.444;30.540;2022-08-04T13:13:18;9.18;;;8.15;;
21428;SDS011;10875;50.444;30.540;2022-08-04T13:15:55;10.93;;;8.40;;
21428;SDS011;10875;50.444;30.540;2022-08-04T13:20:50;9.63;;;8.00;;
21428;SDS011;10875;50.444;30.540;2022-08-04T13:23:16;10.27;;;8.05;;
21428;SDS011;10875;50.444;30.540;2022-08-04T13:25:44;9.13;;;7.40;;
21428;SDS011;10875;50.444;30.540;2022-08-04T13:28:17;10.80;;;8.00;;
21428;SDS011;10875;50.444;30.540;2022-08-04T13:30:52;10.13;;;7.57;;
21428;SDS011;10875;50.444;30.540;2022-08-04T13:33:20;9.73;;;8.45;;
21428;SDS011;10875;50.444;30.540;2022-08-04T13:35:51;12.30;;;8.77;;
21428;SDS011;10875;50.444;30.540;2022-08-04T13:38:17;10.18;;;7.57;;
21428;SDS011;10875;50.444;30.540;2022-08-04T13:40:44;8.45;;;7.28;;
21428;SDS011;10875;50.444;30.540;2022-08-04T13:43:21;11.15;;;8.52;;
21428;SDS011;10875;50.444;30.540;2022-08-04T13:45:49;11.20;;;7.53;;
21428;SDS011;10875;50.444;30.540;2022-08-04T13:48:15;9.38;;;7.90;;
21428;SDS011;10875;50.444;30.540;2022-08-04T13:50:46;9.75;;;8.07;;
21428;SDS011;10875;50.444;30.540;2022-08-04T13:53:12;10.05;;;8.07;;
21428;SDS011;10875;50.444;30.540;2022-08-04T13:55:41;9.73;;;7.47;;
21428;SDS011;10875;50.444;30.540;2022-08-04T14:00:59;6.50;;;5.07;;
21428;SDS011;10875;50.444;30.540;2022-08-04T14:06:24;5.70;;;4.50;;
21428;SDS011;10875;50.444;30.540;2022-08-04T14:08:55;5.97;;;4.80;;
21428;SDS011;10875;50.444;30.540;2022-08-04T14:11:40;7.07;;;5.35;;
21428;SDS011;10875;50.444;30.540;2022-08-04T14:14:18;6.82;;;5.15;;
21428;SDS011;10875;50.444;30.540;2022-08-04T14:16:55;6.63;;;5.35;;
21428;SDS011;10875;50.444;30.540;2022-08-04T14:19:46;6.53;;;5.20;;
21428;SDS011;10875;50.444;30.540;2022-08-04T14:27:50;6.68;;;5.60;;
21428;SDS011;10875;50.444;30.540;2022-08-04T14:30:30;8.93;;;6.35;;
21428;SDS011;10875;50.444;30.540;2022-08-04T14:33:04;9.25;;;6.97;;
21428;SDS011;10875;50.444;30.540;2022-08-04T14:35:31;8.50;;;6.13;;
21428;SDS011;10875;50.444;30.540;2022-08-04T14:40:29;8.13;;;6.28;;
21428;SDS011;10875;50.444;30.540;2022-08-04T14:43:03;9.02;;;6.88;;
21428;SDS011;10875;50.444;30.540;2022-08-04T14:45:30;9.10;;;7.18;;
21428;SDS011;10875;50.444;30.540;2022-08-04T14:48:11;7.72;;;5.97;;
21428;SDS011;10875;50.444;30.540;2022-08-04T14:50:42;9.38;;;6.93;;
21428;SDS011;10875;50.444;30.540;2022-08-04T14:53:11;9.75;;;6.72;;
21428;SDS011;10875;50.444;30.540;2022-08-04T14:55:54;8.45;;;7.07;;
21428;SDS011;10875;50.444;30.540;2022-08-04T14:58:26;8.95;;;7.90;;
21428;SDS011;10875;50.444;30.540;2022-08-04T15:01:00;11.68;;;8.25;;
21428;SDS011;10875;50.444;30.540;2022-08-04T15:03:29;11.52;;;8.00;;
21428;SDS011;10875;50.444;30.540;2022-08-04T15:05:56;10.23;;;8.40;;
21428;SDS011;10875;50.444;30.540;2022-08-04T15:08:24;9.95;;;8.27;;
21428;SDS011;10875;50.444;30.540;2022-08-04T15:10:51;12.30;;;9.48;;
21428;SDS011;10875;50.444;30.540;2022-08-04T15:13:22;12.05;;;9.48;;
21428;SDS011;10875;50.444;30.540;2022-08-04T15:15:51;14.27;;;10.13;;
21428;SDS011;10875;50.444;30.540;2022-08-04T15:18:17;13.18;;;10.20;;
21428;SDS011;10875;50.444;30.540;2022-08-04T15:20:43;10.07;;;8.97;;
21428;SDS011;10875;50.444;30.540;2022-08-04T15:23:09;10.52;;;9.07;;
21428;SDS011;10875;50.444;30.540;2022-08-04T15:25:39;10.63;;;8.80;;
21428;SDS011;10875;50.444;30.540;2022-08-04T15:28:10;9.82;;;8.68;;
21428;SDS011;10875;50.444;30.540;2022-08-04T15:30:39;13.38;;;9.10;;
21428;SDS011;10875;50.444;30.540;2022-08-04T15:35:32;10.13;;;8.13;;
21428;SDS011;10875;50.444;30.540;2022-08-04T15:40:28;8.45;;;7.43;;
21428;SDS011;10875;50.444;30.540;2022-08-04T15:43:04;8.70;;;7.50;;
21428;SDS011;10875;50.444;30.540;2022-08-04T15:45:47;9.20;;;7.85;;
21428;SDS011;10875;50.444;30.540;2022-08-04T15:51:23;10.88;;;7.30;;
21428;SDS011;10875;50.444;30.540;2022-08-04T15:56:02;9.63;;;7.00;;
21428;SDS011;10875;50.444;30.540;2022-08-04T15:58:54;8.65;;;6.75;;
21428;SDS011;10875;50.444;30.540;2022-08-04T16:01:20;10.15;;;7.68;;
21428;SDS011;10875;50.444;30.540;2022-08-04T16:03:47;11.18;;;7.63;;
21428;SDS011;10875;50.444;30.540;2022-08-04T16:19:04;9.98;;;8.10;;
21428;SDS011;10875;50.444;30.540;2022-08-04T16:21:44;9.13;;;7.35;;
21428;SDS011;10875;50.444;30.540;2022-08-04T16:27:05;10.27;;;7.50;;
21428;SDS011;10875;50.444;30.540;2022-08-04T16:29:44;9.60;;;7.18;;
21428;SDS011;10875;50.444;30.540;2022-08-04T16:37:31;9.65;;;7.82;;
21428;SDS011;10875;50.444;30.540;2022-08-04T16:42:50;8.02;;;6.72;;
21428;SDS011;10875;50.444;30.540;2022-08-04T16:45:17;9.57;;;6.95;;
21428;SDS011;10875;50.444;30.540;2022-08-04T16:50:12;8.75;;;7.20;;
21428;SDS011;10875;50.444;30.540;2022-08-04T16:52:44;9.32;;;7.15;;
21428;SDS011;10875;50.444;30.540;2022-08-04T16:55:16;9.73;;;7.07;;
21428;SDS011;10875;50.444;30.540;2022-08-04T16:57:47;8.63;;;6.65;;
21428;SDS011;10875;50.444;30.540;2022-08-04T17:00:14;8.57;;;6.40;;
21428;SDS011;10875;50.444;30.540;2022-08-04T17:02:40;8.52;;;5.80;;
21428;SDS011;10875;50.444;30.540;2022-08-04T17:05:20;9.20;;;6.68;;
21428;SDS011;10875;50.444;30.540;2022-08-04T17:07:48;8.77;;;6.47;;
21428;SDS011;10875;50.444;30.540;2022-08-04T17:10:18;8.80;;;7.07;;
21428;SDS011;10875;50.444;30.540;2022-08-04T17:12:43;8.70;;;7.10;;
21428;SDS011;10875;50.444;30.540;2022-08-04T17:15:20;9.35;;;6.75;;
21428;SDS011;10875;50.444;30.540;2022-08-04T17:17:46;8.43;;;6.53;;
21428;SDS011;10875;50.444;30.540;2022-08-04T17:20:12;9.57;;;7.20;;
21428;SDS011;10875;50.444;30.540;2022-08-04T17:22:38;9.90;;;7.40;;
21428;SDS011;10875;50.444;30.540;2022-08-04T17:25:04;8.20;;;6.57;;
21428;SDS011;10875;50.444;30.540;2022-08-04T17:27:30;8.80;;;7.28;;
21428;SDS011;10875;50.444;30.540;2022-08-04T17:29:56;9.43;;;7.27;;
21428;SDS011;10875;50.444;30.540;2022-08-04T17:32:22;9.23;;;6.47;;
21428;SDS011;10875;50.444;30.540;2022-08-04T17:34:48;8.52;;;6.95;;
21428;SDS011;10875;50.444;30.540;2022-08-04T17:37:15;8.88;;;6.82;;
21428;SDS011;10875;50.444;30.540;2022-08-04T17:39:42;7.80;;;6.55;;
21428;SDS011;10875;50.444;30.540;2022-08-04T17:42:07;9.30;;;7.23;;
21428;SDS011;10875;50.444;30.540;2022-08-04T17:44:36;9.40;;;7.50;;
21428;SDS011;10875;50.444;30.540;2022-08-04T17:47:17;9.63;;;7.10;;
21428;SDS011;10875;50.444;30.540;2022-08-04T17:49:43;9.13;;;6.68;;
21428;SDS011;10875;50.444;30.540;2022-08-04T17:52:18;11.35;;;7.78;;
21428;SDS011;10875;50.444;30.540;2022-08-04T17:54:44;9.70;;;8.02;;
21428;SDS011;10875;50.444;30.540;2022-08-04T17:57:14;8.95;;;6.93;;
21428;SDS011;10875;50.444;30.540;2022-08-04T17:59:42;9.73;;;7.68;;
21428;SDS011;10875;50.444;30.540;2022-08-04T18:02:22;8.48;;;7.00;;
21428;SDS011;10875;50.444;30.540;2022-08-04T18:04:52;9.10;;;6.70;;
21428;SDS011;10875;50.444;30.540;2022-08-04T18:07:19;8.33;;;6.83;;
21428;SDS011;10875;50.444;30.540;2022-08-04T18:12:23;9.32;;;7.38;;
21428;SDS011;10875;50.444;30.540;2022-08-04T18:14:57;9.48;;;7.10;;
21428;SDS011;10875;50.444;30.540;2022-08-04T18:20:04;8.57;;;7.22;;
21428;SDS011;10875;50.444;30.540;2022-08-04T18:22:33;7.95;;;6.65;;
21428;SDS011;10875;50.444;30.540;2022-08-04T18:24:58;9.70;;;7.80;;
21428;SDS011;10875;50.444;30.540;2022-08-04T18:27:25;10.53;;;7.40;;
21428;SDS011;10875;50.444;30.540;2022-08-04T18:29:52;10.05;;;7.95;;
21428;SDS011;10875;50.444;30.540;2022-08-04T18:32:19;9.35;;;7.25;;
21428;SDS011;10875;50.444;30.540;2022-08-04T18:34:47;9.98;;;8.32;;
21428;SDS011;10875;50.444;30.540;2022-08-04T18:39:40;9.65;;;7.43;;
21428;SDS011;10875;50.444;30.540;2022-08-04T18:42:06;12.17;;;8.33;;
21428;SDS011;10875;50.444;30.540;2022-08-04T18:44:31;9.27;;;7.40;;
21428;SDS011;10875;50.444;30.540;2022-08-04T18:46:58;11.93;;;8.15;;
21428;SDS011;10875;50.444;30.540;2022-08-04T18:51:51;11.75;;;8.13;;
21428;SDS011;10875;50.444;30.540;2022-08-04T18:54:17;11.00;;;7.95;;
21428;SDS011;10875;50.444;30.540;2022-08-04T18:56:42;9.67;;;7.83;;
21428;SDS011;10875;50.444;30.540;2022-08-04T18:59:08;11.27;;;9.03;;
21428;SDS011;10875;50.444;30.540;2022-08-04T19:01:34;10.00;;;7.83;;
21428;SDS011;10875;50.444;30.540;2022-08-04T19:03:59;10.25;;;7.88;;
21428;SDS011;10875;50.444;30.540;2022-08-04T19:06:27;11.63;;;8.23;;
21428;SDS011;10875;50.444;30.540;2022-08-04T19:08:53;11.27;;;8.88;;
21428;SDS011;10875;50.444;30.540;2022-08-04T19:11:19;13.40;;;9.30;;
21428;SDS011;10875;50.444;30.540;2022-08-04T19:13:44;11.50;;;9.83;;
21428;SDS011;10875;50.444;30.540;2022-08-04T19:16:10;12.63;;;9.10;;
21428;SDS011;10875;50.444;30.540;2022-08-04T19:18:36;11.70;;;9.03;;
21428;SDS011;10875;50.444;30.540;2022-08-04T19:21:01;11.50;;;9.37;;
21428;SDS011;10875;50.444;30.540;2022-08-04T19:23:27;12.07;;;8.50;;
21428;SDS011;10875;50.444;30.540;2022-08-04T19:25:55;10.18;;;8.40;;
21428;SDS011;10875;50.444;30.540;2022-08-04T19:28:20;10.47;;;8.20;;
21428;SDS011;10875;50.444;30.540;2022-08-04T19:30:46;10.03;;;7.93;;
21428;SDS011;10875;50.444;30.540;2022-08-04T19:33:12;10.47;;;8.60;;
21428;SDS011;10875;50.444;30.540;2022-08-04T19:35:38;12.50;;;8.95;;
21428;SDS011;10875;50.444;30.540;2022-08-04T19:38:05;10.23;;;8.43;;
21428;SDS011;10875;50.444;30.540;2022-08-04T19:40:32;9.95;;;8.23;;
21428;SDS011;10875;50.444;30.540;2022-08-04T19:42:57;12.43;;;8.80;;